Terminal Aerodrome Forecast
Issued by NWS Topeka, KS

Home | Current Version | Previous Version | Graphics & Text | Print | Product List | Glossary On
Versions: 1 2 3 4 5 6 7 8 9 10 11 12 13 14 15 16 17 18 19 20
665
FTUS43 KTOP 221127
TAFTOP
TAF
KTOP 221127Z 2212/2312 07009KT P6SM BKN090 BKN250
     FM221600 10012G19KT P6SM BKN070 BKN150
     FM230300 13010KT P6SM OVC040
     FM230500 14010KT P6SM -DZ OVC025
     FM230700 14010KT P6SM -DZ OVC015
     FM231000 14010KT 6SM -DZ OVC008=

USA.gov is the U.S. government's official web portal to all federal, state and local government web resources and services.